Time;durP1;ratioP1;P1;durP2;ratioP2;P2;SDS_P1;SDS_P2;PMS_P1;PMS_P2;Temp;Humidity;BMP_temperature;BMP_pressure;BME280_temperature;BME280_humidity;BME280_pressure;Samples;Min_cycle;Max_cycle;Signal;HPM_P1;HPM_P2
2021/11/01 00:00:52;;;;;;;;;;;;;;;;;;2050103;29;1994;-91
2021/11/01 00:01:53;;;;;;;;;;;;;;;;;;2058246;28;1378;-82
2021/11/01 00:02:55;;;;;;;;;;;;;;;;;;2058282;28;2065;-83
2021/11/01 00:04:02;;;;;;;;;;;;;;;;;;2057991;28;1419;-84
2021/11/01 00:05:04;;;;;;;;;;;;;;;;;;2050740;28;1265;-84
2021/11/01 00:06:06;;;;;;;;;;;;;;;;;;2050071;29;2037;-84
2021/11/01 00:07:08;;;;;;;;;;;;;;;;;;2042518;28;1408;-85
2021/11/01 00:08:10;;;;;;;;;;;;;;;;;;2056491;28;1697;-85
2021/11/01 00:09:11;;;;;;;;;;;;;;;;;;2057585;28;1307;-89
2021/11/01 00:10:13;;;;;;;;;;;;;;;;;;2035249;29;1284;-85
2021/11/01 00:11:15;;;;;;;;;;;;;;;;;;2041042;28;1986;-85
2021/11/01 00:12:15;;;;;;;;;;;;;;;;;;2050049;28;1355;-85
2021/11/01 00:13:17;;;;;;;;;;;;;;;;;;2043582;29;1940;-85
2021/11/01 00:14:18;;;;;;;;;;;;;;;;;;2044823;28;1369;-85
2021/11/01 00:15:20;;;;;;;;;;;;;;;;;;2041770;29;1367;-85
2021/11/01 00:16:23;;;;;;;;;;;;;;;;;;2042891;29;1237;-85
2021/11/01 00:17:25;;;;;;;;;;;;;;;;;;2045568;28;1320;-85
2021/11/01 00:18:26;;;;;;;;;;;;;;;;;;2050157;28;1867;-85
2021/11/01 00:19:27;;;;;;;;;;;;;;;;;;2048866;28;1366;-87
2021/11/01 00:20:29;;;;;;;;;;;;;;;;;;2054926;28;1377;-85
2021/11/01 00:21:30;;;;;;;;;;;;;;;;;;2049122;29;1915;-84
2021/11/01 00:22:32;;;;;;;;;;;;;;;;;;2055856;28;1709;-85
2021/11/01 00:23:35;;;;;;;;;;;;;;;;;;2049360;28;1299;-85
2021/11/01 00:24:36;;;;;;;;;;;;;;;;;;2050727;28;1272;-85
2021/11/01 00:25:40;;;;;;;;;;;;;;;;;;2048254;29;1366;-85
2021/11/01 00:26:41;;;;;;;;;;;;;;;;;;2050270;29;1256;-85
2021/11/01 00:27:43;;;;;;;;;;;;;;;;;;2055929;28;1338;-85
2021/11/01 00:28:44;;;;;;;;;;;;;;;;;;2057590;28;1372;-86
2021/11/01 00:29:46;;;;;;;;;;;;;;;;;;2056372;28;1395;-85
2021/11/01 00:30:48;;;;;;;;;;;;;;;;;;2051106;28;1599;-86
2021/11/01 00:31:49;;;;;;;;;;;;;;;;;;2056530;28;1976;-86
2021/11/01 00:32:51;;;;;;;;;;;;;;;;;;2057073;28;1299;-85
2021/11/01 00:33:52;;;;;;;;;;;;;;;;;;2042341;29;1402;-85
2021/11/01 00:34:55;;;;;;;;;;;;;;;;;;2039250;28;1264;-85
2021/11/01 00:35:57;;;;;;;;;;;;;;;;;;2048714;28;1313;-85
2021/11/01 00:36:58;;;;;;;;;;;;;;;;;;2054777;28;1409;-86
2021/11/01 00:38:00;;;;;;;;;;;;;;;;;;2048980;29;1339;-84
2021/11/01 00:39:03;;;;;;;;;;;;;;;;;;2045649;29;1363;-85
2021/11/01 00:40:05;;;;;;;;;;;;;;;;;;2043751;29;1310;-83
2021/11/01 00:41:07;;;;;;;;;;;;;;;;;;2050333;29;1214;-85
2021/11/01 00:42:08;;;;;;;;;;;;;;;;;;2044094;29;1222;-85
2021/11/01 00:43:09;;;;;;;;;;;;;;;;;;2043422;29;2094;-85
2021/11/01 00:44:10;;;;;;;;;;;;;;;;;;2051908;28;1338;-86
2021/11/01 00:45:12;;;;;;;;;;;;;;;;;;2051565;29;1369;-81
2021/11/01 00:46:13;;;;;;;;;;;;;;;;;;2043688;29;1650;-85
2021/11/01 00:47:15;;;;;;;;;;;;;;;;;;2050917;29;1233;-85
2021/11/01 00:48:17;;;;;;;;;;;;;;;;;;2044040;29;1888;-84
2021/11/01 00:49:18;;;;;;;;;;;;;;;;;;2043437;29;1541;-84
2021/11/01 00:50:20;;;;;;;;;;;;;;;;;;2051815;28;1237;-84
2021/11/01 00:51:21;;;;;;;;;;;;;;;;;;2056834;28;1974;-83
2021/11/01 00:52:24;;;;;;;;;;;;;;;;;;2051559;29;1284;-83
2021/11/01 00:53:30;;;;;;;;;;;;;;;;;;2051317;28;1851;-84
2021/11/01 00:54:34;;;;;;;;;;;;;;;;;;2051133;29;1230;-83
2021/11/01 00:55:48;;;;;;;;;;;;;;;;;;2051463;28;1248;-85
2021/11/01 00:56:48;;;;;;;;;;;;;;;;;;2051161;29;1199;-83
2021/11/01 00:57:51;;;;;;;;;;;;;;;;;;2043595;29;1884;-83
2021/11/01 00:58:52;;;;;;;;;;;;;;;;;;2051458;29;1231;-83
2021/11/01 00:59:54;;;;;;;;;;;;;;;;;;2051057;29;1284;-83
2021/11/01 01:00:56;;;;;;;;;;;;;;;;;;2051429;29;1174;-84
2021/11/01 01:01:57;;;;;;;;;;;;;;;;;;2050935;28;1182;-83
2021/11/01 01:02:59;;;;;;;;;;;;;;;;;;2054549;28;1851;-84
2021/11/01 01:04:01;;;;;;;;;;;;;;;;;;2059422;28;1316;-82
2021/11/01 01:05:03;;;;;;;;;;;;;;;;;;2051255;29;1363;-83
2021/11/01 01:06:04;;;;;;;;;;;;;;;;;;2051568;28;2155;-83
2021/11/01 01:07:06;;;;;;;;;;;;;;;;;;2043388;29;1237;-83
2021/11/01 01:08:07;;;;;;;;;;;;;;;;;;2051161;28;1906;-83
2021/11/01 01:09:08;;;;;;;;;;;;;;;;;;2050648;29;1371;-83
2021/11/01 01:10:11;;;;;;;;;;;;;;;;;;2043425;29;1385;-83
2021/11/01 01:11:13;;;;;;;;;;;;;;;;;;2043108;29;1211;-83
2021/11/01 01:12:14;;;;;;;;;;;;;;;;;;2043439;29;1926;-83
2021/11/01 01:13:17;;;;;;;;;;;;;;;;;;2043195;29;1900;-85
2021/11/01 01:14:26;;;;;;;;;;;;;;;;;;2051593;28;1293;-83
2021/11/01 01:15:35;;;;;;;;;;;;;;;;;;2051064;29;1217;-84
2021/11/01 01:16:41;;;;;;;;;;;;;;;;;;2045008;29;2281;-91
2021/11/01 01:17:45;;;;;;;;;;;;;;;;;;2045655;28;1927;-88
2021/11/01 01:18:47;;;;;;;;;;;;;;;;;;2059937;28;1365;-86
2021/11/01 01:19:55;;;;;;;;;;;;;;;;;;2059491;28;1412;-90
2021/11/01 01:20:59;;;;;;;;;;;;;;;;;;2051885;28;2049;-85
2021/11/01 01:22:22;;;;;;;;;;;;;;;;;;2051444;29;1233;-85
2021/11/01 01:23:23;;;;;;;;;;;;;;;;;;2046080;29;1899;-85
2021/11/01 01:24:25;;;;;;;;;;;;;;;;;;2051305;29;1333;-85
2021/11/01 01:25:44;;;;;;;;;;;;;;;;;;2051269;29;1375;-85
2021/11/01 01:26:46;;;;;;;;;;;;;;;;;;2045472;29;1295;-84
2021/11/01 01:27:48;;;;;;;;;;;;;;;;;;2043105;29;1924;-85
2021/11/01 01:28:49;;;;;;;;;;;;;;;;;;2051298;29;865;-84
2021/11/01 01:29:51;;;;;;;;;;;;;;;;;;2050797;29;1344;-85
2021/11/01 01:30:55;;;;;;;;;;;;;;;;;;2045360;28;2101;-84
2021/11/01 01:31:57;;;;;;;;;;;;;;;;;;2051458;28;1910;-84
2021/11/01 01:32:57;;;;;;;;;;;;;;;;;;2055655;28;2033;-86
2021/11/01 01:34:00;;;;;;;;;;;;;;;;;;2051293;29;1396;-84
2021/11/01 01:35:00;;;;;;;;;;;;;;;;;;2042863;29;1336;-84
2021/11/01 01:36:03;;;;;;;;;;;;;;;;;;2043647;29;2068;-85
2021/11/01 01:37:04;;;;;;;;;;;;;;;;;;2050961;28;1242;-85
2021/11/01 01:38:05;;;;;;;;;;;;;;;;;;2050795;29;1919;-85
2021/11/01 01:39:06;;;;;;;;;;;;;;;;;;2051031;28;1366;-84
2021/11/01 01:40:09;;;;;;;;;;;;;;;;;;2051223;29;1241;-84
2021/11/01 01:41:12;;;;;;;;;;;;;;;;;;2050419;28;2107;-84
2021/11/01 01:42:13;;;;;;;;;;;;;;;;;;2051356;28;1394;-85
2021/11/01 01:43:14;;;;;;;;;;;;;;;;;;2058571;28;1840;-85
2021/11/01 01:44:16;;;;;;;;;;;;;;;;;;2050789;29;1356;-85
2021/11/01 01:45:17;;;;;;;;;;;;;;;;;;2059188;28;1253;-85
2021/11/01 01:46:19;;;;;;;;;;;;;;;;;;2053912;28;2115;-85
2021/11/01 01:47:20;;;;;;;;;;;;;;;;;;2043176;29;1212;-86
2021/11/01 01:48:21;;;;;;;;;;;;;;;;;;2050662;28;1852;-85
2021/11/01 01:49:23;;;;;;;;;;;;;;;;;;2051088;28;1249;-85
2021/11/01 01:50:24;;;;;;;;;;;;;;;;;;2059219;28;1327;-85
2021/11/01 01:51:27;;;;;;;;;;;;;;;;;;2058331;28;2020;-86
2021/11/01 01:52:28;;;;;;;;;;;;;;;;;;2043458;29;1902;-86
2021/11/01 01:53:29;;;;;;;;;;;;;;;;;;2050338;29;1947;-86
2021/11/01 01:54:30;;;;;;;;;;;;;;;;;;2051287;29;1209;-85
2021/11/01 01:55:32;;;;;;;;;;;;;;;;;;2051084;29;1317;-85
2021/11/01 01:56:34;;;;;;;;;;;;;;;;;;2051634;28;2038;-86
2021/11/01 01:57:36;;;;;;;;;;;;;;;;;;2058716;28;1866;-87
2021/11/01 01:58:45;;;;;;;;;;;;;;;;;;2051574;29;785;-86
2021/11/01 01:59:48;;;;;;;;;;;;;;;;;;2050925;29;1202;-85
2021/11/01 02:00:58;;;;;;;;;;;;;;;;;;2044599;29;1281;-86
2021/11/01 02:02:00;;;;;;;;;;;;;;;;;;2044537;29;1437;-85
2021/11/01 02:03:01;;;;;;;;;;;;;;;;;;2051239;28;1899;-86
2021/11/01 02:04:03;;;;;;;;;;;;;;;;;;2051149;29;1459;-86
2021/11/01 02:05:04;;;;;;;;;;;;;;;;;;2050661;29;1226;-85
2021/11/01 02:06:09;;;;;;;;;;;;;;;;;;2046866;28;1404;-86
2021/11/01 02:07:14;;;;;;;;;;;;;;;;;;2051341;28;1214;-85
2021/11/01 02:08:17;;;;;;;;;;;;;;;;;;2053079;28;1907;-86
2021/11/01 02:09:21;;;;;;;;;;;;;;;;;;2043274;29;1308;-85
2021/11/01 02:10:27;;;;;;;;;;;;;;;;;;2043461;29;1299;-85
2021/11/01 02:11:34;;;;;;;;;;;;;;;;;;2056878;28;1963;-86
2021/11/01 02:12:42;;;;;;;;;;;;;;;;;;2057861;28;1981;-86
2021/11/01 02:13:46;;;;;;;;;;;;;;;;;;2051029;29;1229;-85
2021/11/01 02:14:50;;;;;;;;;;;;;;;;;;2051243;28;1441;-85
2021/11/01 02:15:53;;;;;;;;;;;;;;;;;;2051267;28;2029;-86
2021/11/01 02:16:55;;;;;;;;;;;;;;;;;;2043264;29;1324;-85
2021/11/01 02:17:56;;;;;;;;;;;;;;;;;;2043025;29;1270;-85
2021/11/01 02:19:02;;;;;;;;;;;;;;;;;;2042153;29;1234;-87
2021/11/01 02:20:04;;;;;;;;;;;;;;;;;;2051826;28;1379;-85
2021/11/01 02:21:12;;;;;;;;;;;;;;;;;;2054186;28;2028;-85
2021/11/01 02:22:15;;;;;;;;;;;;;;;;;;2051249;29;809;-85
2021/11/01 02:23:19;;;;;;;;;;;;;;;;;;2056315;28;1879;-85
2021/11/01 02:24:26;;;;;;;;;;;;;;;;;;2050876;29;1178;-85
2021/11/01 02:25:39;;;;;;;;;;;;;;;;;;2043665;29;1211;-85
2021/11/01 02:26:40;;;;;;;;;;;;;;;;;;2051281;28;1287;-85
2021/11/01 02:27:43;;;;;;;;;;;;;;;;;;2050291;28;1916;-86
2021/11/01 02:28:45;;;;;;;;;;;;;;;;;;2050846;29;1219;-85
2021/11/01 02:29:47;;;;;;;;;;;;;;;;;;2042913;29;1237;-85
2021/11/01 02:30:50;;;;;;;;;;;;;;;;;;2052398;28;1888;-84
2021/11/01 02:31:51;;;;;;;;;;;;;;;;;;2058676;28;1906;-84
2021/11/01 02:32:53;;;;;;;;;;;;;;;;;;2050488;29;1233;-85
2021/11/01 02:33:54;;;;;;;;;;;;;;;;;;2042824;29;1526;-85
2021/11/01 02:34:56;;;;;;;;;;;;;;;;;;2042993;29;1379;-84
2021/11/01 02:35:58;;;;;;;;;;;;;;;;;;2051000;28;2012;-84
2021/11/01 02:37:00;;;;;;;;;;;;;;;;;;2050522;29;1550;-85
2021/11/01 02:38:04;;;;;;;;;;;;;;;;;;2054737;28;1784;-85
2021/11/01 02:39:06;;;;;;;;;;;;;;;;;;2058651;28;1224;-84
2021/11/01 02:40:08;;;;;;;;;;;;;;;;;;2058365;28;1368;-85
2021/11/01 02:41:19;;;;;;;;;;;;;;;;;;2058078;28;1218;-85
2021/11/01 02:42:20;;;;;;;;;;;;;;;;;;2058699;28;1270;-84
2021/11/01 02:43:22;;;;;;;;;;;;;;;;;;2050657;28;1313;-84
2021/11/01 02:44:23;;;;;;;;;;;;;;;;;;2058860;28;1218;-84
2021/11/01 02:45:25;;;;;;;;;;;;;;;;;;2050705;28;1301;-85
2021/11/01 02:46:26;;;;;;;;;;;;;;;;;;2058897;28;964;-85
2021/11/01 02:47:29;;;;;;;;;;;;;;;;;;2057527;28;1371;-85
2021/11/01 02:48:30;;;;;;;;;;;;;;;;;;2043539;29;913;-85
2021/11/01 02:49:32;;;;;;;;;;;;;;;;;;2050553;29;1286;-86
2021/11/01 02:50:34;;;;;;;;;;;;;;;;;;2043057;29;1208;-86
2021/11/01 02:51:35;;;;;;;;;;;;;;;;;;2050316;28;2025;-86
2021/11/01 02:52:37;;;;;;;;;;;;;;;;;;2050785;29;1989;-86
2021/11/01 02:53:37;;;;;;;;;;;;;;;;;;2042799;29;1219;-86
2021/11/01 02:54:39;;;;;;;;;;;;;;;;;;2042527;29;1332;-85
2021/11/01 02:55:40;;;;;;;;;;;;;;;;;;2050047;29;2017;-86
2021/11/01 02:56:44;;;;;;;;;;;;;;;;;;2042540;29;1272;-86
2021/11/01 02:57:45;;;;;;;;;;;;;;;;;;2050666;29;1429;-86
2021/11/01 02:58:46;;;;;;;;;;;;;;;;;;2050830;29;1208;-85
2021/11/01 02:59:48;;;;;;;;;;;;;;;;;;2042606;29;1355;-86
2021/11/01 03:00:49;;;;;;;;;;;;;;;;;;2049363;29;2083;-86
2021/11/01 03:01:51;;;;;;;;;;;;;;;;;;2041792;29;1361;-86
2021/11/01 03:02:52;;;;;;;;;;;;;;;;;;2043353;29;1880;-86
2021/11/01 03:03:54;;;;;;;;;;;;;;;;;;2034807;29;1203;-84
2021/11/01 03:04:55;;;;;;;;;;;;;;;;;;2042801;29;1437;-83
2021/11/01 03:05:57;;;;;;;;;;;;;;;;;;2042999;29;1989;-84
2021/11/01 03:06:58;;;;;;;;;;;;;;;;;;2034855;29;1428;-84
2021/11/01 03:07:59;;;;;;;;;;;;;;;;;;2042146;29;1316;-85
2021/11/01 03:09:00;;;;;;;;;;;;;;;;;;2042429;29;1419;-84
2021/11/01 03:10:03;;;;;;;;;;;;;;;;;;2042658;29;1271;-84
2021/11/01 03:11:04;;;;;;;;;;;;;;;;;;2042968;29;2037;-84
2021/11/01 03:12:10;;;;;;;;;;;;;;;;;;2034454;29;1965;-83
2021/11/01 03:13:12;;;;;;;;;;;;;;;;;;2047592;28;1892;-84
2021/11/01 03:14:18;;;;;;;;;;;;;;;;;;2050674;29;1194;-84
2021/11/01 03:15:24;;;;;;;;;;;;;;;;;;2042930;29;1291;-83
2021/11/01 03:16:25;;;;;;;;;;;;;;;;;;2036763;29;2237;-85
2021/11/01 03:17:27;;;;;;;;;;;;;;;;;;2042583;29;1324;-84
2021/11/01 03:18:38;;;;;;;;;;;;;;;;;;2042732;29;1833;-84
2021/11/01 03:19:43;;;;;;;;;;;;;;;;;;2042070;29;1331;-83
2021/11/01 03:20:45;;;;;;;;;;;;;;;;;;2050623;28;2008;-83
2021/11/01 03:21:47;;;;;;;;;;;;;;;;;;2050456;29;1339;-83
2021/11/01 03:22:50;;;;;;;;;;;;;;;;;;2041354;29;1785;-83
2021/11/01 03:23:53;;;;;;;;;;;;;;;;;;2042517;29;1241;-84
2021/11/01 03:24:56;;;;;;;;;;;;;;;;;;2050408;29;1394;-84
2021/11/01 03:26:01;;;;;;;;;;;;;;;;;;2050506;28;2041;-84
2021/11/01 03:27:03;;;;;;;;;;;;;;;;;;2050180;29;1570;-84
2021/11/01 03:28:08;;;;;;;;;;;;;;;;;;2049943;29;2027;-84
2021/11/01 03:29:09;;;;;;;;;;;;;;;;;;2057739;28;1333;-84
2021/11/01 03:30:12;;;;;;;;;;;;;;;;;;2050722;29;1347;-84
2021/11/01 03:31:13;;;;;;;;;;;;;;;;;;2045826;28;1948;-84
2021/11/01 03:32:15;;;;;;;;;;;;;;;;;;2034745;29;1914;-84
2021/11/01 03:33:16;;;;;;;;;;;;;;;;;;2040538;29;1452;-84
2021/11/01 03:34:19;;;;;;;;;;;;;;;;;;2042652;29;1237;-84
2021/11/01 03:35:22;;;;;;;;;;;;;;;;;;2034897;29;1369;-85
2021/11/01 03:36:24;;;;;;;;;;;;;;;;;;2040510;29;2109;-85
2021/11/01 03:37:26;;;;;;;;;;;;;;;;;;2050305;29;1233;-87
2021/11/01 03:38:29;;;;;;;;;;;;;;;;;;2049927;29;1265;-85
2021/11/01 03:39:30;;;;;;;;;;;;;;;;;;2050508;29;1389;-84
2021/11/01 03:40:34;;;;;;;;;;;;;;;;;;2050623;29;1436;-85
2021/11/01 03:41:36;;;;;;;;;;;;;;;;;;2048413;29;2179;-84
2021/11/01 03:42:37;;;;;;;;;;;;;;;;;;2042884;29;1844;-85
2021/11/01 03:43:44;;;;;;;;;;;;;;;;;;2049702;29;1225;-83
2021/11/01 03:44:48;;;;;;;;;;;;;;;;;;2050703;29;1228;-84
2021/11/01 03:45:50;;;;;;;;;;;;;;;;;;2044069;28;2021;-85
2021/11/01 03:46:55;;;;;;;;;;;;;;;;;;2050628;29;1206;-84
2021/11/01 03:48:02;;;;;;;;;;;;;;;;;;2046156;28;1794;-84
2021/11/01 03:49:05;;;;;;;;;;;;;;;;;;2050485;29;1387;-85
2021/11/01 03:50:16;;;;;;;;;;;;;;;;;;2050492;28;1201;-87
2021/11/01 03:51:38;;;;;;;;;;;;;;;;;;2055557;28;1402;-85
2021/11/01 03:52:42;;;;;;;;;;;;;;;;;;2050118;28;1911;-85
2021/11/01 03:53:43;;;;;;;;;;;;;;;;;;2042922;29;1358;-84
2021/11/01 03:54:46;;;;;;;;;;;;;;;;;;2042557;29;1325;-84
2021/11/01 03:55:47;;;;;;;;;;;;;;;;;;2043507;29;2013;-84
2021/11/01 03:56:51;;;;;;;;;;;;;;;;;;2050480;29;1369;-84
2021/11/01 03:57:53;;;;;;;;;;;;;;;;;;2049837;28;1874;-84
2021/11/01 03:58:55;;;;;;;;;;;;;;;;;;2051860;29;837;-84
2021/11/01 03:59:57;;;;;;;;;;;;;;;;;;2051834;29;1204;-84
2021/11/01 04:00:58;;;;;;;;;;;;;;;;;;2043749;29;1287;-84
2021/11/01 04:02:00;;;;;;;;;;;;;;;;;;2044342;29;1258;-84
2021/11/01 04:03:02;;;;;;;;;;;;;;;;;;2047719;29;1931;-85
2021/11/01 04:04:05;;;;;;;;;;;;;;;;;;2052110;29;1288;-85
2021/11/01 04:05:07;;;;;;;;;;;;;;;;;;2051369;28;1284;-85
2021/11/01 04:06:08;;;;;;;;;;;;;;;;;;2059319;28;2012;-85
2021/11/01 04:07:09;;;;;;;;;;;;;;;;;;2059858;28;1432;-87
2021/11/01 04:08:12;;;;;;;;;;;;;;;;;;2051737;28;1851;-84
2021/11/01 04:09:13;;;;;;;;;;;;;;;;;;2051775;28;1301;-84
2021/11/01 04:10:15;;;;;;;;;;;;;;;;;;2044271;29;1202;-84
2021/11/01 04:11:17;;;;;;;;;;;;;;;;;;2043484;28;1354;-84
2021/11/01 04:12:18;;;;;;;;;;;;;;;;;;2051695;28;1251;-84
2021/11/01 04:13:19;;;;;;;;;;;;;;;;;;2051117;28;1903;-84
2021/11/01 04:14:24;;;;;;;;;;;;;;;;;;2051940;29;1271;-84
2021/11/01 04:15:25;;;;;;;;;;;;;;;;;;2059924;28;1469;-84
2021/11/01 04:16:36;;;;;;;;;;;;;;;;;;2052954;28;1454;-84
2021/11/01 04:17:40;;;;;;;;;;;;;;;;;;2052265;28;1851;-84
2021/11/01 04:18:54;;;;;;;;;;;;;;;;;;2059543;28;1316;-84
2021/11/01 04:19:58;;;;;;;;;;;;;;;;;;2051777;29;1339;-84
2021/11/01 04:21:05;;;;;;;;;;;;;;;;;;2051669;29;1309;-85
2021/11/01 04:22:06;;;;;;;;;;;;;;;;;;2052608;28;1324;-85
2021/11/01 04:23:11;;;;;;;;;;;;;;;;;;2059629;28;1266;-84
2021/11/01 04:24:12;;;;;;;;;;;;;;;;;;2051965;29;1331;-84
2021/11/01 04:25:14;;;;;;;;;;;;;;;;;;2043909;29;1277;-84
2021/11/01 04:26:17;;;;;;;;;;;;;;;;;;2043649;29;1451;-84
2021/11/01 04:27:19;;;;;;;;;;;;;;;;;;2051290;29;1436;-84
2021/11/01 04:28:20;;;;;;;;;;;;;;;;;;2057866;28;1895;-84
2021/11/01 04:29:25;;;;;;;;;;;;;;;;;;2051495;29;1333;-85
2021/11/01 04:30:28;;;;;;;;;;;;;;;;;;2051905;29;1038;-84
2021/11/01 04:31:32;;;;;;;;;;;;;;;;;;2058310;28;1877;-85
2021/11/01 04:32:35;;;;;;;;;;;;;;;;;;2050832;29;1288;-84
2021/11/01 04:33:39;;;;;;;;;;;;;;;;;;2043863;29;1406;-84
2021/11/01 04:34:43;;;;;;;;;;;;;;;;;;2052253;28;1352;-85
2021/11/01 04:35:44;;;;;;;;;;;;;;;;;;2059464;28;1395;-84
2021/11/01 04:36:48;;;;;;;;;;;;;;;;;;2059651;28;1318;-84
2021/11/01 04:37:56;;;;;;;;;;;;;;;;;;2059435;28;1257;-84
2021/11/01 04:39:03;;;;;;;;;;;;;;;;;;2059777;28;1520;-84
2021/11/01 04:40:25;;;;;;;;;;;;;;;;;;2058487;28;781;-84
2021/11/01 04:41:30;;;;;;;;;;;;;;;;;;2051737;28;2092;-84
2021/11/01 04:44:14;;;;;;;;;;;;;;;;;;2053318;28;1288;-86
2021/11/01 04:53:17;;;;;;;;;;;;;;;;;;2051710;28;1993;-84
2021/11/01 04:54:18;;;;;;;;;;;;;;;;;;2043636;29;1250;-84
2021/11/01 04:55:21;;;;;;;;;;;;;;;;;;2051630;28;1276;-84
2021/11/01 04:56:26;;;;;;;;;;;;;;;;;;2051522;29;1408;-84
2021/11/01 04:57:26;;;;;;;;;;;;;;;;;;2043471;29;1468;-84
2021/11/01 04:58:29;;;;;;;;;;;;;;;;;;2051364;28;1281;-84
2021/11/01 04:59:31;;;;;;;;;;;;;;;;;;2051359;28;1237;-83
2021/11/01 05:00:33;;;;;;;;;;;;;;;;;;2058773;28;1322;-84
2021/11/01 05:01:38;;;;;;;;;;;;;;;;;;2058626;28;2036;-84
2021/11/01 05:02:42;;;;;;;;;;;;;;;;;;2058955;28;1914;-84
2021/11/01 05:03:48;;;;;;;;;;;;;;;;;;2051350;29;1237;-83
2021/11/01 05:04:50;;;;;;;;;;;;;;;;;;2043984;29;1352;-83
2021/11/01 05:05:51;;;;;;;;;;;;;;;;;;2051604;28;2004;-83
2021/11/01 05:06:54;;;;;;;;;;;;;;;;;;2051409;29;1251;-83
2021/11/01 05:07:58;;;;;;;;;;;;;;;;;;2042975;29;1233;-84
2021/11/01 05:09:05;;;;;;;;;;;;;;;;;;2051340;29;1198;-85
2021/11/01 05:10:12;;;;;;;;;;;;;;;;;;2051006;28;1191;-85
2021/11/01 05:11:21;;;;;;;;;;;;;;;;;;2051341;28;2082;-87
2021/11/01 05:12:28;;;;;;;;;;;;;;;;;;2051475;29;1316;-87
2021/11/01 05:13:31;;;;;;;;;;;;;;;;;;2052555;28;1906;-87
2021/11/01 05:14:38;;;;;;;;;;;;;;;;;;2051201;29;1359;-90
2021/11/01 05:15:44;;;;;;;;;;;;;;;;;;2052094;28;1356;-86
2021/11/01 05:16:57;;;;;;;;;;;;;;;;;;2051673;29;1226;-87
2021/11/01 05:18:00;;;;;;;;;;;;;;;;;;2045116;29;1408;-87
2021/11/01 05:19:08;;;;;;;;;;;;;;;;;;2043776;29;1389;-86
2021/11/01 05:20:13;;;;;;;;;;;;;;;;;;2051441;29;1252;-88
2021/11/01 05:21:29;;;;;;;;;;;;;;;;;;2044153;29;1321;-87
2021/11/01 05:22:32;;;;;;;;;;;;;;;;;;2051615;29;809;-87
2021/11/01 05:23:39;;;;;;;;;;;;;;;;;;2051582;29;1229;-87
2021/11/01 05:24:42;;;;;;;;;;;;;;;;;;2044493;29;1396;-87
2021/11/01 05:25:45;;;;;;;;;;;;;;;;;;2043075;29;1203;-81
2021/11/01 05:27:10;;;;;;;;;;;;;;;;;;2043296;29;1532;-80
2021/11/01 05:28:20;;;;;;;;;;;;;;;;;;2046073;29;1309;-80
2021/11/01 05:29:21;;;;;;;;;;;;;;;;;;2050444;29;1769;-80
2021/11/01 05:30:28;;;;;;;;;;;;;;;;;;2042997;29;1333;-80
2021/11/01 05:31:31;;;;;;;;;;;;;;;;;;2043918;29;2040;-81
2021/11/01 05:32:34;;;;;;;;;;;;;;;;;;2043280;29;1438;-80
2021/11/01 05:33:50;;;;;;;;;;;;;;;;;;2043068;29;1973;-81
2021/11/01 05:34:52;;;;;;;;;;;;;;;;;;2045154;29;1830;-80
2021/11/01 05:35:52;;;;;;;;;;;;;;;;;;2042481;29;1665;-79
2021/11/01 05:36:54;;;;;;;;;;;;;;;;;;2051026;29;1670;-80
2021/11/01 05:37:55;;;;;;;;;;;;;;;;;;2042970;29;1259;-80
2021/11/01 05:38:57;;;;;;;;;;;;;;;;;;2043124;29;1661;-79
2021/11/01 05:39:57;;;;;;;;;;;;;;;;;;2051039;29;1574;-80
2021/11/01 05:40:59;;;;;;;;;;;;;;;;;;2042178;29;1576;-80
2021/11/01 05:42:00;;;;;;;;;;;;;;;;;;2050847;29;1669;-80
2021/11/01 05:43:02;;;;;;;;;;;;;;;;;;2041865;29;1840;-80
2021/11/01 05:44:03;;;;;;;;;;;;;;;;;;2043277;29;1553;-80
2021/11/01 05:45:05;;;;;;;;;;;;;;;;;;2050723;29;1612;-80
2021/11/01 05:46:06;;;;;;;;;;;;;;;;;;2043154;29;1624;-80
2021/11/01 05:47:10;;;;;;;;;;;;;;;;;;2042796;29;1593;-80
2021/11/01 05:48:12;;;;;;;;;;;;;;;;;;2051098;29;1681;-80
2021/11/01 05:49:14;;;;;;;;;;;;;;;;;;2042782;29;1524;-80
2021/11/01 05:50:15;;;;;;;;;;;;;;;;;;2042581;29;1610;-80
2021/11/01 05:51:18;;;;;;;;;;;;;;;;;;2050731;29;1555;-80
2021/11/01 05:52:24;;;;;;;;;;;;;;;;;;2051047;29;1830;-80
2021/11/01 05:53:28;;;;;;;;;;;;;;;;;;2050860;29;1918;-80
2021/11/01 05:54:31;;;;;;;;;;;;;;;;;;2050953;29;1876;-81
2021/11/01 05:55:39;;;;;;;;;;;;;;;;;;2042984;29;1834;-80
2021/11/01 05:56:47;;;;;;;;;;;;;;;;;;2043669;29;1530;-80
2021/11/01 05:58:00;;;;;;;;;;;;;;;;;;2043474;29;1575;-80
2021/11/01 06:00:37;;;;;;;;;;;;;;;;;;2050768;29;1513;-80
2021/11/01 06:02:08;;;;;;;;;;;;;;;;;;2050545;29;1778;-80
2021/11/01 06:03:14;;;;;;;;;;;;;;;;;;2046854;29;1678;-82
2021/11/01 06:04:18;;;;;;;;;;;;;;;;;;2050425;29;808;-80
2021/11/01 06:05:39;;;;;;;;;;;;;;;;;;2050499;29;1357;-80
2021/11/01 06:06:59;;;;;;;;;;;;;;;;;;2045590;29;1685;-81
2021/11/01 06:09:20;;;;;;;;;;;;;;;;;;2050119;29;1735;-81
2021/11/01 06:10:39;;;;;;;;;;;;;;;;;;2043580;29;1697;-80
2021/11/01 06:14:15;;;;;;;;;;;;;;;;;;2040213;28;1678;-80
2021/11/01 06:15:16;;;;;;;;;;;;;;;;;;2058656;28;1728;-79
2021/11/01 06:16:18;;;;;;;;;;;;;;;;;;2050596;29;1725;-80
2021/11/01 06:17:19;;;;;;;;;;;;;;;;;;2050768;28;1674;-80
2021/11/01 06:18:24;;;;;;;;;;;;;;;;;;2050144;29;1341;-80
2021/11/01 06:19:26;;;;;;;;;;;;;;;;;;2043170;29;1809;-81
2021/11/01 06:20:27;;;;;;;;;;;;;;;;;;2042813;29;1333;-82
2021/11/01 06:21:29;;;;;;;;;;;;;;;;;;2042535;29;1534;-81
2021/11/01 06:22:29;;;;;;;;;;;;;;;;;;2042382;28;1847;-83
2021/11/01 06:23:33;;;;;;;;;;;;;;;;;;2052034;28;1714;-81
2021/11/01 06:24:48;;;;;;;;;;;;;;;;;;2053033;28;1511;-81
2021/11/01 06:25:51;;;;;;;;;;;;;;;;;;2058574;28;770;-81
2021/11/01 06:26:52;;;;;;;;;;;;;;;;;;2050856;28;1390;-81
2021/11/01 06:27:55;;;;;;;;;;;;;;;;;;2042173;29;1295;-80
2021/11/01 06:29:00;;;;;;;;;;;;;;;;;;2050400;29;1525;-80
2021/11/01 06:31:22;;;;;;;;;;;;;;;;;;2047585;28;1450;-81
2021/11/01 06:32:31;;;;;;;;;;;;;;;;;;2043178;29;1399;-80
2021/11/01 06:40:32;;;;;;;;;;;;;;;;;;2050574;29;1852;-80
2021/11/01 06:42:00;;;;;;;;;;;;;;;;;;2052343;28;1520;-80
2021/11/01 06:43:07;;;;;;;;;;;;;;;;;;2056830;28;1317;-80
2021/11/01 06:45:38;;;;;;;;;;;;;;;;;;2053065;28;1652;-80
2021/11/01 06:50:55;;;;;;;;;;;;;;;;;;2050526;28;1669;-81
2021/11/01 06:53:48;;;;;;;;;;;;;;;;;;2033902;29;1994;-80
2021/11/01 06:56:34;;;;;;;;;;;;;;;;;;2051886;28;1537;-80
2021/11/01 07:14:14;;;;;;;;;;;;;;;;;;2100334;28;1567;-79
2021/11/01 07:15:19;;;;;;;;;;;;;;;;;;2105927;28;1345;-79
2021/11/01 07:16:27;;;;;;;;;;;;;;;;;;2101361;28;1270;-79
2021/11/01 07:17:38;;;;;;;;;;;;;;;;;;2114718;28;764;-79
2021/11/01 07:18:47;;;;;;;;;;;;;;;;;;2109541;28;1766;-80
2021/11/01 07:19:59;;;;;;;;;;;;;;;;;;2114604;28;1914;-79
2021/11/01 07:21:16;;;;;;;;;;;;;;;;;;2097503;28;1324;-80
2021/11/01 07:22:38;;;;;;;;;;;;;;;;;;2114821;28;1518;-79
2021/11/01 07:24:01;;;;;;;;;;;;;;;;;;2106592;28;1873;-80
2021/11/01 07:38:58;;;;;;;;;;;;;;;;;;2092310;28;1659;-79
2021/11/01 08:21:46;;;;;;;;;;;;;;;;;;2053364;28;1775;-80
2021/11/01 08:28:24;;;;;;;;;;;;;;;;;;2083697;28;1254;-82
2021/11/01 08:29:44;;;;;;;;;;;;;;;;;;2083831;28;1041;-81
2021/11/01 08:36:22;;;;;;;;;;;;;;;;;;2078270;28;1228;-81
2021/11/01 08:37:49;;;;;;;;;;;;;;;;;;2078220;28;1384;-82
2021/11/01 08:39:09;;;;;;;;;;;;;;;;;;2085280;28;1528;-81
2021/11/01 08:43:13;;;;;;;;;;;;;;;;;;2074579;28;1339;-81
2021/11/01 08:46:05;;;;;;;;;;;;;;;;;;2059154;28;1657;-81
2021/11/01 08:47:29;;;;;;;;;;;;;;;;;;2053243;28;1204;-80
2021/11/01 08:50:11;;;;;;;;;;;;;;;;;;2053708;28;1514;-82
2021/11/01 09:02:22;;;;;;;;;;;;;;;;;;2074544;28;1630;-78
2021/11/01 09:03:35;;;;;;;;;;;;;;;;;;2091647;28;1147;-79
2021/11/01 09:07:23;;;;;;;;;;;;;;;;;;2088133;28;1303;-80
2021/11/01 09:09:59;;;;;;;;;;;;;;;;;;2060478;28;1714;-80
2021/11/01 09:19:48;;;;;;;;;;;;;;;;;;2063012;28;1671;-81
2021/11/01 09:21:11;;;;;;;;;;;;;;;;;;2062644;28;1233;-80
2021/11/01 09:24:49;;;;;;;;;;;;;;;;;;2070482;28;1713;-79
2021/11/01 09:26:01;;;;;;;;;;;;;;;;;;2083539;28;2079;-80
2021/11/01 09:27:05;;;;;;;;;;;;;;;;;;2091462;28;863;-80
2021/11/01 09:28:11;;;;;;;;;;;;;;;;;;2091269;28;1342;-79
2021/11/01 09:29:20;;;;;;;;;;;;;;;;;;2088985;28;1774;-80
2021/11/01 09:30:39;;;;;;;;;;;;;;;;;;2092824;28;1536;-79
2021/11/01 09:36:56;;;;;;;;;;;;;;;;;;2082905;28;1779;-80
2021/11/01 09:38:13;;;;;;;;;;;;;;;;;;2083063;28;798;-82
2021/11/01 09:39:40;;;;;;;;;;;;;;;;;;2083106;28;1542;-78
2021/11/01 09:40:58;;;;;;;;;;;;;;;;;;2078231;28;1967;-79
2021/11/01 09:42:01;;;;;;;;;;;;;;;;;;2076589;28;1520;-79
2021/11/01 09:43:03;;;;;;;;;;;;;;;;;;2074175;28;1168;-80
2021/11/01 09:44:09;;;;;;;;;;;;;;;;;;2082355;28;780;-80
2021/11/01 09:45:09;;;;;;;;;;;;;;;;;;2082922;28;930;-79
2021/11/01 09:46:11;;;;;;;;;;;;;;;;;;2082618;28;1216;-79
2021/11/01 09:47:14;;;;;;;;;;;;;;;;;;2073927;28;1522;-84
2021/11/01 09:48:15;;;;;;;;;;;;;;;;;;2074958;28;1399;-84
2021/11/01 09:49:17;;;;;;;;;;;;;;;;;;2080840;28;1315;-83
2021/11/01 09:50:21;;;;;;;;;;;;;;;;;;2083721;28;1389;-89
2021/11/01 09:51:27;;;;;;;;;;;;;;;;;;2084294;28;836;-89
2021/11/01 09:52:28;;;;;;;;;;;;;;;;;;2083566;28;1365;-90
2021/11/01 09:53:39;;;;;;;;;;;;;;;;;;2075068;28;1307;-82
2021/11/01 09:54:43;;;;;;;;;;;;;;;;;;2076465;28;1480;-79
2021/11/01 09:55:48;;;;;;;;;;;;;;;;;;2083224;28;1877;-78
2021/11/01 09:56:58;;;;;;;;;;;;;;;;;;2082605;28;1203;-79
2021/11/01 09:59:22;;;;;;;;;;;;;;;;;;2085524;28;1675;-80
2021/11/01 10:00:23;;;;;;;;;;;;;;;;;;2082888;28;1918;-80
2021/11/01 10:01:25;;;;;;;;;;;;;;;;;;2082923;28;1796;-79
2021/11/01 10:02:27;;;;;;;;;;;;;;;;;;2091296;28;1684;-80